Latest Weather Observations for Mount Stuart (Defence)

IDQ60801

Issued at 8:32 pm EST Saturday 16 December 2017 (issued every 30 minutes, with the page automatically refreshed every 10 minutes)

About weather observations | Map of weather stations | Latest weather observations for QLD | Other Formats
Station Details ID: 032195 Name: MOUNT STUART (DEFENCE) Lat: -19.41 Lon: 146.76 Height: 176.36 m
Data from the previous 72 hours. | See also: Recent months at Mount Stuart (Defence)
Date/Time
EST
Temp
°C
App
Temp
°C
Dew
Point
°C
Rel
Hum
%
Delta-T
°C
Wind Press
QNH
hPa
Press
MSL
hPa
Rain since
9am
mm
Dir  Spd
km/h
Gust
km/h
Spd
kts
Gust
kts
16/08:30pm 25.7 26.5 19.8 70 3.8 ENE 15 19 8 10 - - 0.0
16/08:00pm 25.8 26.6 19.9 70 3.9 ENE 15 20 8 11 - - 0.0
16/07:30pm 26.0 26.5 20.1 70 3.9 ENE 17 28 9 15 - - 0.0
16/07:00pm 26.4 26.2 20.5 70 3.9 ENE 22 35 12 19 - - 0.0
16/06:30pm 27.1 26.5 21.2 70 3.9 ENE 26 35 14 19 - - 0.0
16/06:00pm 27.5 27.0 21.5 70 4.0 ENE 26 39 14 21 - - 0.0
16/05:30pm 28.1 27.9 22.1 70 4.1 ENE 26 37 14 20 - - 0.0
16/05:00pm 28.7 28.5 22.7 70 4.1 ENE 28 37 15 20 - - 0.0
16/04:30pm 29.1 29.5 23.1 70 4.1 ENE 26 39 14 21 - - 0.0
16/04:00pm 30.1 32.1 24.0 70 4.3 ENE 20 33 11 18 - - 0.0
16/03:30pm 30.4 32.2 24.3 70 4.3 NE 22 32 12 17 - - 0.0
16/03:00pm 30.9 34.0 24.8 70 4.3 ENE 17 26 9 14 - - 0.0
16/02:30pm 30.6 33.9 24.5 70 4.3 NE 15 26 8 14 - - 0.0
16/02:00pm 30.4 32.8 24.3 70 4.3 ENE 19 26 10 14 - - 0.0
16/01:30pm 29.9 32.4 23.8 70 4.2 ENE 17 24 9 13 - - 0.0
16/01:00pm 28.4 29.7 22.4 70 4.1 E 19 30 10 16 - - 0.0
16/12:30pm 28.6 29.5 22.6 70 4.1 ENE 22 32 12 17 - - 0.0
16/12:00pm 26.7 25.9 20.8 70 3.9 ENE 26 37 14 20 - - 0.0
16/11:30am 27.3 26.3 21.3 69 4.0 ENE 28 39 15 21 - - 0.0
16/11:00am 30.6 33.9 24.5 70 4.3 NE 15 20 8 11 - - 0.0
16/10:30am 30.1 34.8 24.0 70 4.3 N 6 9 3 5 - - 0.0
16/10:00am 28.7 32.1 22.7 70 4.1 SSE 9 19 5 10 - - 0.0
16/09:30am 30.2 35.0 24.1 70 4.3 SSE 6 11 3 6 - - 0.0
16/09:00am 29.2 33.4 23.2 70 4.1 SE 6 11 3 6 - - 0.0
16/08:30am 27.2 30.2 21.2 69 4.0 SSW 7 11 4 6 - - 0.0
16/08:00am 25.5 27.9 19.6 70 3.8 SSW 6 11 3 6 - - 0.0
16/07:30am 24.8 27.7 19.0 70 3.7 S 2 6 1 3 - - 0.0
16/07:00am 24.3 26.6 18.5 70 3.7 SSE 4 6 2 3 - - 0.0
16/06:30am 23.3 24.8 17.5 70 3.6 S 6 9 3 5 - - 0.0
16/06:00am 23.2 25.8 17.4 70 3.6 CALM 0 0 0 0 - - 0.0
16/05:30am 23.1 24.9 17.3 70 3.6 ENE 4 6 2 3 - - 0.0
16/05:00am 22.8 24.4 17.0 70 3.6 E 4 6 2 3 - - 0.0
16/04:30am 22.6 23.6 16.9 70 3.5 E 7 9 4 5 - - 0.0
16/04:00am 22.7 23.7 16.9 70 3.6 ESE 7 9 4 5 - - 0.0
16/03:30am 23.1 24.3 17.3 70 3.6 ESE 7 9 4 5 - - 0.0
16/03:00am 23.4 25.3 17.6 70 3.6 E 4 6 2 3 - - 0.0
16/02:30am 24.1 25.7 18.3 70 3.7 ENE 7 7 4 4 - - 0.0
16/02:00am 24.1 25.7 18.3 70 3.7 ENE 7 9 4 5 - - 0.0
16/01:30am 24.1 25.7 18.3 70 3.7 NE 7 11 4 6 - - 0.0
16/01:00am 24.3 26.0 18.5 70 3.7 ENE 7 9 4 5 - - 0.0
16/12:30am 24.4 25.8 18.6 70 3.7 ENE 9 13 5 7 - - 0.0
16/12:00am 24.6 25.7 18.8 70 3.7 ENE 11 17 6 9 - - 0.0
 
Date/Time
EST
Temp
°C
App
Temp
°C
Dew
Point
°C
Rel
Hum
%
Delta-T
°C
Wind Press
QNH
hPa
Press
MSL
hPa
Rain since
9am
mm
Dir  Spd
km/h
Gust
km/h
Spd
kts
Gust
kts
15/11:30pm 24.8 26.3 19.0 70 3.7 ENE 9 15 5 8 - - 0.0
15/11:00pm 24.8 26.0 19.0 70 3.7 ENE 11 20 6 11 - - 0.0
15/10:30pm 24.8 26.0 19.0 70 3.7 ENE 11 19 6 10 - - 0.0
15/10:00pm 24.9 25.7 19.1 70 3.7 ENE 13 20 7 11 - - 0.0
15/09:30pm 25.0 25.1 19.1 70 3.8 ENE 17 26 9 14 - - 0.0
15/09:00pm 25.1 24.8 19.2 70 3.8 ENE 19 26 10 14 - - 0.0
15/08:30pm 25.2 25.0 19.3 70 3.8 ENE 19 26 10 14 - - 0.0
15/08:00pm 25.5 25.4 19.6 70 3.8 ENE 19 28 10 15 - - 0.0
15/07:30pm 25.7 25.1 19.8 70 3.8 ENE 22 33 12 18 - - 0.0
15/07:00pm 26.1 25.4 20.2 70 3.9 ENE 24 35 13 19 - - 0.0
15/06:30pm 26.8 27.2 20.9 70 3.9 NE 20 32 11 17 - - 0.0
15/06:00pm 27.3 27.9 21.3 69 4.0 NE 20 32 11 17 - - 0.0
15/05:30pm 27.8 26.7 21.8 70 4.0 NE 30 41 16 22 - - 0.0
15/05:00pm 28.3 29.4 22.3 70 4.1 ENE 20 32 11 17 - - 0.0
15/04:30pm 29.4 31.1 23.4 70 4.1 ENE 20 32 11 17 - - 0.0
15/04:00pm 29.3 31.1 23.3 70 4.1 ENE 19 28 10 15 - - 0.0
15/03:30pm 29.4 30.3 23.4 70 4.1 ENE 24 33 13 18 - - 0.0
15/03:00pm 29.4 30.7 23.4 70 4.1 NE 22 35 12 19 - - 0.0
15/02:30pm 30.1 31.0 24.0 70 4.3 ENE 26 39 14 21 - - 0.0
15/02:00pm 30.3 32.1 24.2 70 4.3 ENE 22 33 12 18 - - 0.0
15/01:30pm 29.8 30.5 23.7 70 4.2 ENE 26 37 14 20 - - 0.0
15/01:00pm 30.6 32.6 24.5 70 4.3 ENE 22 30 12 16 - - 0.0
15/12:30pm 31.1 34.7 25.0 70 4.3 NNE 15 20 8 11 - - 0.0
15/12:00pm 30.1 33.5 24.0 70 4.3 NNE 13 19 7 10 - - 0.0
15/11:30am 31.4 36.7 25.3 70 4.3 WNW 7 17 4 9 - - 0.0
15/11:00am 30.7 36.2 24.6 70 4.3 SSW 4 7 2 4 - - 0.0
15/10:30am 30.6 36.0 24.5 70 4.3 SE 4 7 2 4 - - 0.0
15/10:00am 29.6 34.4 23.5 69 4.2 S 4 7 2 4 - - 0.0
15/09:30am 27.5 31.2 21.5 70 4.0 SSW 4 9 2 5 - - 0.0
15/09:00am 28.1 31.6 22.1 70 4.1 E 7 15 4 8 - - 0.0
15/08:30am 27.3 31.3 21.3 69 4.0 SSE 2 9 1 5 - - 0.0
15/08:00am 25.8 28.3 19.9 70 3.9 SSE 6 9 3 5 - - 0.0
15/07:30am 25.9 28.5 20.0 70 3.9 ESE 6 9 3 5 - - 0.0
15/07:00am 25.3 27.6 19.4 70 3.8 ESE 6 7 3 4 - - 0.0
15/06:30am 24.0 26.5 18.2 70 3.7 E 2 7 1 4 - - 0.0
15/06:00am 24.2 26.0 18.4 70 3.7 NE 6 7 3 4 - - 0.0
15/05:30am 23.8 25.3 18.0 70 3.7 NE 7 9 4 5 - - 0.0
15/05:00am 23.9 25.0 18.1 70 3.7 NNE 9 11 5 6 - - 0.0
15/04:30am 23.7 25.1 17.9 70 3.7 NE 7 9 4 5 - - 0.0
15/04:00am 23.5 24.5 17.7 70 3.6 NE 9 11 5 6 - - 0.0
15/03:30am 23.6 24.2 17.8 70 3.6 NE 11 13 6 7 - - 0.0
15/03:00am 23.9 24.3 18.1 70 3.7 NE 13 17 7 9 - - 0.0
15/02:30am 23.8 24.5 18.0 70 3.7 ENE 11 15 6 8 - - 0.0
15/02:00am 23.9 24.7 18.1 70 3.7 ENE 11 17 6 9 - - 0.0
15/01:30am 24.2 25.5 18.4 70 3.7 ENE 9 13 5 7 - - 0.0
15/01:00am 24.3 26.0 18.5 70 3.7 NE 7 9 4 5 - - 0.0
15/12:30am 24.3 26.0 18.5 70 3.7 ENE 7 15 4 8 - - 0.0
15/12:00am 24.4 26.1 18.6 70 3.7 NE 7 11 4 6 - - 0.0
 
Date/Time
EST
Temp
°C
App
Temp
°C
Dew
Point
°C
Rel
Hum
%
Delta-T
°C
Wind Press
QNH
hPa
Press
MSL
hPa
Rain since
9am
mm
Dir  Spd
km/h
Gust
km/h
Spd
kts
Gust
kts
14/11:30pm 24.6 25.7 18.8 70 3.7 ENE 11 17 6 9 - - 0.0
14/11:00pm 24.8 26.3 19.0 70 3.7 NE 9 17 5 9 - - 0.0
14/10:30pm 24.6 26.1 18.8 70 3.7 NE 9 17 5 9 - - 0.0
14/10:00pm 24.7 25.8 18.9 70 3.7 NE 11 19 6 10 - - 0.0
14/09:30pm 24.8 26.3 19.0 70 3.7 ENE 9 15 5 8 - - 0.0
14/09:00pm 24.9 26.1 19.1 70 3.7 NE 11 20 6 11 - - 0.0
14/08:30pm 25.2 26.5 19.3 70 3.8 ENE 11 19 6 10 - - 0.0
14/08:00pm 25.4 25.7 19.5 70 3.8 NE 17 26 9 14 - - 0.0
14/07:30pm 25.5 25.2 19.6 70 3.8 NE 20 28 11 15 - - 0.0
14/07:00pm 25.9 26.0 20.0 70 3.9 ENE 19 32 10 17 - - 0.0
14/06:30pm 26.2 25.5 20.3 70 3.9 NE 24 35 13 19 - - 0.0
14/06:00pm 26.6 25.7 20.7 70 3.9 NE 26 43 14 23 - - 0.0
14/05:30pm 27.4 26.5 21.4 70 4.0 ENE 28 37 15 20 - - 0.0
14/05:00pm 28.1 28.3 22.1 70 4.1 ENE 24 35 13 19 - - 0.0
14/04:30pm 28.7 28.9 22.7 70 4.1 NE 26 35 14 19 - - 0.0
14/04:00pm 29.6 31.0 23.5 69 4.2 NE 22 39 12 21 - - 0.0
14/03:30pm 30.1 31.4 24.0 70 4.3 ENE 24 44 13 24 - - 0.0
14/03:00pm 29.9 30.7 23.8 70 4.2 NE 26 43 14 23 - - 0.0
14/02:30pm 30.5 32.4 24.4 70 4.3 ENE 22 35 12 19 - - 0.0
14/02:00pm 30.1 31.0 24.0 70 4.3 NE 26 39 14 21 - - 0.0
14/01:30pm 30.6 33.1 24.5 70 4.3 NE 19 30 10 16 - - 0.0
14/01:00pm 30.4 34.3 24.3 70 4.3 NNE 11 19 6 10 - - 0.0
14/12:30pm 31.3 36.7 25.2 70 4.3 NNW 6 17 3 9 - - 0.0
14/12:00pm 31.6 36.3 25.5 70 4.4 SSW 11 19 6 10 - - 0.0
14/11:30am 31.2 36.4 25.1 70 4.3 S 7 15 4 8 - - 0.0
14/11:00am 29.5 33.7 23.4 69 4.2 SSW 7 11 4 6 - - 0.0
14/10:30am 29.7 34.0 23.6 69 4.2 SSW 7 11 4 6 - - 0.0
14/10:00am 28.5 33.1 22.5 70 4.1 SW 2 6 1 3 - - 0.0
14/09:30am 27.4 30.7 21.4 70 4.0 SW 6 11 3 6 - - 0.0
14/09:00am 26.7 29.7 20.8 70 3.9 SSW 6 11 3 6 - - 0.0
14/08:30am 26.2 28.9 20.3 70 3.9 S 6 11 3 6 - - 0.0
14/08:00am 24.8 26.9 19.0 70 3.7 SSW 6 9 3 5 - - 0.0
14/07:30am 24.2 27.2 18.4 70 3.7 CALM 0 7 0 4 - - 0.0
14/07:00am 23.1 25.2 17.3 70 3.6 S 2 7 1 4 - - 0.0
14/06:30am 22.7 23.9 16.9 70 3.6 S 6 7 3 4 - - 0.0
14/06:00am 22.2 23.3 16.5 70 3.5 S 6 9 3 5 - - 0.0
14/05:30am 21.7 22.4 16.0 70 3.5 SSE 7 7 4 4 - - 0.0
14/05:00am 21.8 22.7 16.1 70 3.5 SSE 6 7 3 4 - - 0.0
14/04:30am 22.2 23.1 16.5 70 3.5 S 7 9 4 5 - - 0.0
14/04:00am 22.2 23.3 16.5 70 3.5 SSW 6 7 3 4 - - 0.0
14/03:30am 22.6 23.6 16.9 70 3.5 SSE 7 9 4 5 - - 0.0
14/03:00am 22.7 23.7 16.9 70 3.6 ESE 7 9 4 5 - - 0.0
14/02:30am 23.5 24.5 17.7 70 3.6 ENE 9 11 5 6 - - 0.0
14/02:00am 23.8 24.9 18.0 70 3.7 ENE 9 11 5 6 - - 0.0
14/01:30am 23.9 25.0 18.1 70 3.7 ENE 9 13 5 7 - - 0.0
14/01:00am 23.9 24.7 18.1 70 3.7 NE 11 17 6 9 - - 0.0
14/12:30am 23.9 25.0 18.1 70 3.7 ENE 9 15 5 8 - - 0.0
14/12:00am 24.0 25.2 18.2 70 3.7 NE 9 15 5 8 - - 0.0
 
Date/Time
EST
Temp
°C
App
Temp
°C
Dew
Point
°C
Rel
Hum
%
Delta-T
°C
Wind Press
QNH
hPa
Press
MSL
hPa
Rain since
9am
mm
Dir  Spd
km/h
Gust
km/h
Spd
kts
Gust
kts
13/11:30pm 24.2 25.5 18.4 70 3.7 ENE 9 13 5 7 - - 0.0
13/11:00pm 24.4 25.0 18.6 70 3.7 ENE 13 20 7 11 - - 0.0
13/10:30pm 24.6 25.3 18.8 70 3.7 ENE 13 20 7 11 - - 0.0
13/10:00pm 24.8 24.4 19.0 70 3.7 ENE 19 28 10 15 - - 0.0
13/09:30pm 25.0 25.4 19.1 70 3.8 ENE 15 26 8 14 - - 0.0
13/09:00pm 25.0 25.8 19.1 70 3.8 ENE 13 24 7 13 - - 0.0

Other Formats:

Comma delimited format used in spreadsheet applications
http://www.bom.gov.au/fwo/IDQ60801/IDQ60801.94272.axf

JavaScript Object Notation format (JSON) in row-major order
http://www.bom.gov.au/fwo/IDQ60801/IDQ60801.94272.json